sensor_id;sensor_type;location;lat;lon;timestamp;temperature;humidity
21612;DHT22;47005;52.292;13.452;2022-10-18T00:00:41;16.20;99.90
21612;DHT22;47005;52.292;13.452;2022-10-18T00:03:06;16.20;99.90
21612;DHT22;47005;52.292;13.452;2022-10-18T00:05:32;16.20;99.90
21612;DHT22;47005;52.292;13.452;2022-10-18T00:07:58;16.20;99.90
21612;DHT22;47005;52.292;13.452;2022-10-18T00:10:24;16.10;99.90
21612;DHT22;47005;52.292;13.452;2022-10-18T00:12:50;16.20;99.90
21612;DHT22;47005;52.292;13.452;2022-10-18T00:15:16;16.20;99.90
21612;DHT22;47005;52.292;13.452;2022-10-18T00:17:42;16.10;99.90
21612;DHT22;47005;52.292;13.452;2022-10-18T00:20:08;16.20;99.90
21612;DHT22;47005;52.292;13.452;2022-10-18T00:22:35;16.10;99.90
21612;DHT22;47005;52.292;13.452;2022-10-18T00:25:01;16.10;99.90
21612;DHT22;47005;52.292;13.452;2022-10-18T00:27:30;16.10;99.90
21612;DHT22;47005;52.292;13.452;2022-10-18T00:29:56;16.10;99.90
21612;DHT22;47005;52.292;13.452;2022-10-18T00:32:21;16.10;99.90
21612;DHT22;47005;52.292;13.452;2022-10-18T00:34:47;16.10;99.90
21612;DHT22;47005;52.292;13.452;2022-10-18T00:37:13;16.10;99.90
21612;DHT22;47005;52.292;13.452;2022-10-18T00:39:39;16.20;99.90
21612;DHT22;47005;52.292;13.452;2022-10-18T00:42:05;16.10;99.90
21612;DHT22;47005;52.292;13.452;2022-10-18T00:47:03;16.10;99.90
21612;DHT22;47005;52.292;13.452;2022-10-18T00:52:54;16.10;99.90
21612;DHT22;47005;52.292;13.452;2022-10-18T00:55:23;16.20;99.90
21612;DHT22;47005;52.292;13.452;2022-10-18T00:57:50;16.10;99.90
21612;DHT22;47005;52.292;13.452;2022-10-18T01:00:16;16.20;99.90
21612;DHT22;47005;52.292;13.452;2022-10-18T01:02:43;16.20;99.90
21612;DHT22;47005;52.292;13.452;2022-10-18T01:05:11;16.10;99.90
21612;DHT22;47005;52.292;13.452;2022-10-18T01:08:02;16.10;99.90
21612;DHT22;47005;52.292;13.452;2022-10-18T01:10:59;16.10;99.90
21612;DHT22;47005;52.292;13.452;2022-10-18T01:29:56;16.10;99.90
21612;DHT22;47005;52.292;13.452;2022-10-18T01:32:31;16.10;99.90
21612;DHT22;47005;52.292;13.452;2022-10-18T01:35:03;16.10;99.90
21612;DHT22;47005;52.292;13.452;2022-10-18T01:37:30;16.10;99.90
21612;DHT22;47005;52.292;13.452;2022-10-18T01:39:57;16.10;99.90
21612;DHT22;47005;52.292;13.452;2022-10-18T01:42:24;16.10;99.90
21612;DHT22;47005;52.292;13.452;2022-10-18T01:44:51;16.10;99.90
21612;DHT22;47005;52.292;13.452;2022-10-18T01:47:18;16.10;99.90
21612;DHT22;47005;52.292;13.452;2022-10-18T01:49:44;16.10;99.90
21612;DHT22;47005;52.292;13.452;2022-10-18T01:52:14;16.10;99.90
21612;DHT22;47005;52.292;13.452;2022-10-18T01:54:43;16.10;99.90
21612;DHT22;47005;52.292;13.452;2022-10-18T01:57:35;16.10;99.90
21612;DHT22;47005;52.292;13.452;2022-10-18T02:00:16;16.10;99.90
21612;DHT22;47005;52.292;13.452;2022-10-18T02:02:51;16.10;99.90
21612;DHT22;47005;52.292;13.452;2022-10-18T02:05:38;16.10;99.90
21612;DHT22;47005;52.292;13.452;2022-10-18T02:08:28;16.20;99.90
21612;DHT22;47005;52.292;13.452;2022-10-18T02:11:06;16.20;99.90
21612;DHT22;47005;52.292;13.452;2022-10-18T02:13:39;16.20;99.90
21612;DHT22;47005;52.292;13.452;2022-10-18T02:19:04;16.20;99.90
21612;DHT22;47005;52.292;13.452;2022-10-18T02:21:30;16.20;99.90
21612;DHT22;47005;52.292;13.452;2022-10-18T02:23:57;16.20;99.90
21612;DHT22;47005;52.292;13.452;2022-10-18T02:26:23;16.20;99.90
21612;DHT22;47005;52.292;13.452;2022-10-18T02:28:50;16.30;99.90
21612;DHT22;47005;52.292;13.452;2022-10-18T02:31:24;16.30;99.90
21612;DHT22;47005;52.292;13.452;2022-10-18T02:34:05;16.30;99.90
21612;DHT22;47005;52.292;13.452;2022-10-18T02:36:48;16.30;99.90
21612;DHT22;47005;52.292;13.452;2022-10-18T02:39:18;16.30;99.90
21612;DHT22;47005;52.292;13.452;2022-10-18T02:41:45;16.30;99.90
21612;DHT22;47005;52.292;13.452;2022-10-18T02:44:11;16.30;99.90
21612;DHT22;47005;52.292;13.452;2022-10-18T02:46:38;16.30;99.90
21612;DHT22;47005;52.292;13.452;2022-10-18T02:49:04;16.30;99.90
21612;DHT22;47005;52.292;13.452;2022-10-18T02:51:29;16.30;99.90
21612;DHT22;47005;52.292;13.452;2022-10-18T02:53:55;16.40;99.90
21612;DHT22;47005;52.292;13.452;2022-10-18T02:56:20;16.40;99.90
21612;DHT22;47005;52.292;13.452;2022-10-18T02:58:46;16.40;99.90
21612;DHT22;47005;52.292;13.452;2022-10-18T03:01:11;16.40;99.90
21612;DHT22;47005;52.292;13.452;2022-10-18T03:03:37;16.40;99.90
21612;DHT22;47005;52.292;13.452;2022-10-18T03:06:03;16.40;99.90
21612;DHT22;47005;52.292;13.452;2022-10-18T03:08:29;16.40;99.90
21612;DHT22;47005;52.292;13.452;2022-10-18T03:10:54;16.40;99.90
21612;DHT22;47005;52.292;13.452;2022-10-18T03:13:20;16.40;99.90
21612;DHT22;47005;52.292;13.452;2022-10-18T03:15:46;16.40;99.90
21612;DHT22;47005;52.292;13.452;2022-10-18T03:18:12;16.40;99.90
21612;DHT22;47005;52.292;13.452;2022-10-18T03:20:38;16.40;99.90
21612;DHT22;47005;52.292;13.452;2022-10-18T03:23:03;16.40;99.90
21612;DHT22;47005;52.292;13.452;2022-10-18T03:25:29;16.40;99.90
21612;DHT22;47005;52.292;13.452;2022-10-18T03:27:55;16.50;99.90
21612;DHT22;47005;52.292;13.452;2022-10-18T03:30:20;16.50;99.90
21612;DHT22;47005;52.292;13.452;2022-10-18T03:32:46;16.50;99.90
21612;DHT22;47005;52.292;13.452;2022-10-18T03:35:11;16.50;99.90
21612;DHT22;47005;52.292;13.452;2022-10-18T03:37:37;16.50;99.90
21612;DHT22;47005;52.292;13.452;2022-10-18T03:40:03;16.50;99.90
21612;DHT22;47005;52.292;13.452;2022-10-18T03:42:29;16.40;99.90
21612;DHT22;47005;52.292;13.452;2022-10-18T03:44:54;16.50;99.90
21612;DHT22;47005;52.292;13.452;2022-10-18T03:47:20;16.50;99.90
21612;DHT22;47005;52.292;13.452;2022-10-18T03:49:45;16.50;99.90
21612;DHT22;47005;52.292;13.452;2022-10-18T03:52:11;16.50;99.90
21612;DHT22;47005;52.292;13.452;2022-10-18T03:54:37;16.50;99.90
21612;DHT22;47005;52.292;13.452;2022-10-18T03:57:02;16.40;99.90
21612;DHT22;47005;52.292;13.452;2022-10-18T03:59:28;16.50;99.90
21612;DHT22;47005;52.292;13.452;2022-10-18T04:01:53;16.50;99.90
21612;DHT22;47005;52.292;13.452;2022-10-18T04:04:19;16.50;99.90
21612;DHT22;47005;52.292;13.452;2022-10-18T04:06:44;16.40;99.90
21612;DHT22;47005;52.292;13.452;2022-10-18T04:09:10;16.50;99.90
21612;DHT22;47005;52.292;13.452;2022-10-18T04:11:36;16.50;99.90
21612;DHT22;47005;52.292;13.452;2022-10-18T04:14:02;16.50;99.90
21612;DHT22;47005;52.292;13.452;2022-10-18T04:16:28;16.50;99.90
21612;DHT22;47005;52.292;13.452;2022-10-18T04:18:53;16.50;99.90
21612;DHT22;47005;52.292;13.452;2022-10-18T04:21:19;16.50;99.90
21612;DHT22;47005;52.292;13.452;2022-10-18T04:23:48;16.50;99.90
21612;DHT22;47005;52.292;13.452;2022-10-18T04:26:14;16.50;99.90
21612;DHT22;47005;52.292;13.452;2022-10-18T04:28:41;16.40;99.90
21612;DHT22;47005;52.292;13.452;2022-10-18T04:31:08;16.50;99.90
21612;DHT22;47005;52.292;13.452;2022-10-18T04:33:34;16.40;99.90
21612;DHT22;47005;52.292;13.452;2022-10-18T04:35:59;16.40;99.90
21612;DHT22;47005;52.292;13.452;2022-10-18T04:38:25;16.40;99.90
21612;DHT22;47005;52.292;13.452;2022-10-18T04:40:51;16.40;99.90
21612;DHT22;47005;52.292;13.452;2022-10-18T04:43:17;16.40;99.90
21612;DHT22;47005;52.292;13.452;2022-10-18T04:45:44;16.40;99.90
21612;DHT22;47005;52.292;13.452;2022-10-18T04:48:10;16.40;99.90
21612;DHT22;47005;52.292;13.452;2022-10-18T04:50:36;16.40;99.90
21612;DHT22;47005;52.292;13.452;2022-10-18T04:53:01;16.40;99.90
21612;DHT22;47005;52.292;13.452;2022-10-18T04:55:27;16.40;99.90
21612;DHT22;47005;52.292;13.452;2022-10-18T04:57:53;16.40;99.90
21612;DHT22;47005;52.292;13.452;2022-10-18T05:00:18;16.40;99.90
21612;DHT22;47005;52.292;13.452;2022-10-18T05:02:44;16.40;99.90
21612;DHT22;47005;52.292;13.452;2022-10-18T05:05:09;16.40;99.90
21612;DHT22;47005;52.292;13.452;2022-10-18T05:07:35;16.40;99.90
21612;DHT22;47005;52.292;13.452;2022-10-18T05:10:02;16.40;99.90
21612;DHT22;47005;52.292;13.452;2022-10-18T05:12:28;16.40;99.90
21612;DHT22;47005;52.292;13.452;2022-10-18T05:14:53;16.30;99.90
21612;DHT22;47005;52.292;13.452;2022-10-18T05:17:19;16.40;99.90
21612;DHT22;47005;52.292;13.452;2022-10-18T05:19:44;16.40;99.90
21612;DHT22;47005;52.292;13.452;2022-10-18T05:22:10;16.40;99.90
21612;DHT22;47005;52.292;13.452;2022-10-18T05:24:35;16.40;99.90
21612;DHT22;47005;52.292;13.452;2022-10-18T05:27:01;16.40;99.90
21612;DHT22;47005;52.292;13.452;2022-10-18T05:29:27;16.40;99.90
21612;DHT22;47005;52.292;13.452;2022-10-18T05:31:52;16.30;99.90
21612;DHT22;47005;52.292;13.452;2022-10-18T05:34:18;16.40;99.90
21612;DHT22;47005;52.292;13.452;2022-10-18T05:36:45;16.40;99.90
21612;DHT22;47005;52.292;13.452;2022-10-18T05:39:10;16.30;99.90
21612;DHT22;47005;52.292;13.452;2022-10-18T05:41:36;16.30;99.90
21612;DHT22;47005;52.292;13.452;2022-10-18T05:44:03;16.40;99.90
21612;DHT22;47005;52.292;13.452;2022-10-18T05:46:29;16.30;99.90
21612;DHT22;47005;52.292;13.452;2022-10-18T05:48:55;16.30;99.90
21612;DHT22;47005;52.292;13.452;2022-10-18T05:51:20;16.30;99.90
21612;DHT22;47005;52.292;13.452;2022-10-18T05:53:46;16.30;99.90
21612;DHT22;47005;52.292;13.452;2022-10-18T05:56:12;16.30;99.90
21612;DHT22;47005;52.292;13.452;2022-10-18T05:58:40;16.40;99.90
21612;DHT22;47005;52.292;13.452;2022-10-18T06:01:07;16.30;99.90
21612;DHT22;47005;52.292;13.452;2022-10-18T06:03:33;16.30;99.90
21612;DHT22;47005;52.292;13.452;2022-10-18T06:06:07;16.30;99.90
21612;DHT22;47005;52.292;13.452;2022-10-18T06:08:34;16.30;99.90
21612;DHT22;47005;52.292;13.452;2022-10-18T06:11:05;16.30;99.90
21612;DHT22;47005;52.292;13.452;2022-10-18T06:13:31;16.40;99.90
21612;DHT22;47005;52.292;13.452;2022-10-18T06:15:56;16.30;99.90
21612;DHT22;47005;52.292;13.452;2022-10-18T06:18:22;16.20;99.90
21612;DHT22;47005;52.292;13.452;2022-10-18T06:20:47;16.30;99.90
21612;DHT22;47005;52.292;13.452;2022-10-18T06:23:13;16.30;99.90
21612;DHT22;47005;52.292;13.452;2022-10-18T06:25:38;16.30;99.90
21612;DHT22;47005;52.292;13.452;2022-10-18T06:28:04;16.30;99.90
21612;DHT22;47005;52.292;13.452;2022-10-18T06:30:30;16.30;99.90
21612;DHT22;47005;52.292;13.452;2022-10-18T06:32:59;16.30;99.90
21612;DHT22;47005;52.292;13.452;2022-10-18T06:35:25;16.30;99.90
21612;DHT22;47005;52.292;13.452;2022-10-18T06:37:50;16.30;99.90
21612;DHT22;47005;52.292;13.452;2022-10-18T06:40:16;16.30;99.90
21612;DHT22;47005;52.292;13.452;2022-10-18T06:42:42;16.30;99.90
21612;DHT22;47005;52.292;13.452;2022-10-18T06:45:08;16.30;99.90
21612;DHT22;47005;52.292;13.452;2022-10-18T06:47:33;16.30;99.90
21612;DHT22;47005;52.292;13.452;2022-10-18T06:49:59;16.30;99.90
21612;DHT22;47005;52.292;13.452;2022-10-18T06:52:25;16.30;99.90
21612;DHT22;47005;52.292;13.452;2022-10-18T06:54:51;16.30;99.90
21612;DHT22;47005;52.292;13.452;2022-10-18T06:57:17;16.30;99.90
21612;DHT22;47005;52.292;13.452;2022-10-18T06:59:42;16.30;99.90
21612;DHT22;47005;52.292;13.452;2022-10-18T07:02:12;16.30;99.90
21612;DHT22;47005;52.292;13.452;2022-10-18T07:04:38;16.30;99.90
21612;DHT22;47005;52.292;13.452;2022-10-18T07:07:04;16.30;99.90
21612;DHT22;47005;52.292;13.452;2022-10-18T07:09:30;16.30;99.90
21612;DHT22;47005;52.292;13.452;2022-10-18T07:11:55;16.30;99.90
21612;DHT22;47005;52.292;13.452;2022-10-18T07:14:21;16.30;99.90
21612;DHT22;47005;52.292;13.452;2022-10-18T07:16:46;16.30;99.90
21612;DHT22;47005;52.292;13.452;2022-10-18T07:19:12;16.30;99.90
21612;DHT22;47005;52.292;13.452;2022-10-18T07:21:39;16.30;99.90
21612;DHT22;47005;52.292;13.452;2022-10-18T07:24:05;16.30;99.90
21612;DHT22;47005;52.292;13.452;2022-10-18T07:26:32;16.30;99.90
21612;DHT22;47005;52.292;13.452;2022-10-18T07:29:09;16.40;99.90
21612;DHT22;47005;52.292;13.452;2022-10-18T07:31:36;16.30;99.90
21612;DHT22;47005;52.292;13.452;2022-10-18T07:34:04;16.30;99.90
21612;DHT22;47005;52.292;13.452;2022-10-18T07:36:30;16.30;99.90
21612;DHT22;47005;52.292;13.452;2022-10-18T07:38:56;16.30;99.90
21612;DHT22;47005;52.292;13.452;2022-10-18T07:41:21;16.30;99.90
21612;DHT22;47005;52.292;13.452;2022-10-18T07:43:49;16.30;99.90
21612;DHT22;47005;52.292;13.452;2022-10-18T07:46:15;16.30;99.90
21612;DHT22;47005;52.292;13.452;2022-10-18T07:48:41;16.40;99.90
21612;DHT22;47005;52.292;13.452;2022-10-18T07:51:08;16.40;99.90
21612;DHT22;47005;52.292;13.452;2022-10-18T07:53:34;16.40;99.90
21612;DHT22;47005;52.292;13.452;2022-10-18T07:56:05;16.30;99.90
21612;DHT22;47005;52.292;13.452;2022-10-18T07:58:32;16.30;99.90
21612;DHT22;47005;52.292;13.452;2022-10-18T08:01:03;16.30;99.90
21612;DHT22;47005;52.292;13.452;2022-10-18T08:03:29;16.30;99.90
21612;DHT22;47005;52.292;13.452;2022-10-18T08:05:55;16.30;99.90
21612;DHT22;47005;52.292;13.452;2022-10-18T08:08:21;16.30;99.90
21612;DHT22;47005;52.292;13.452;2022-10-18T08:10:47;16.30;99.90
21612;DHT22;47005;52.292;13.452;2022-10-18T08:13:13;16.30;99.90
21612;DHT22;47005;52.292;13.452;2022-10-18T08:15:38;16.30;99.90
21612;DHT22;47005;52.292;13.452;2022-10-18T08:18:04;16.40;99.90
21612;DHT22;47005;52.292;13.452;2022-10-18T08:20:30;16.40;99.90
21612;DHT22;47005;52.292;13.452;2022-10-18T08:22:58;16.40;99.90
21612;DHT22;47005;52.292;13.452;2022-10-18T08:25:23;16.40;99.90
21612;DHT22;47005;52.292;13.452;2022-10-18T08:27:49;16.40;99.90
21612;DHT22;47005;52.292;13.452;2022-10-18T08:30:14;16.40;99.90
21612;DHT22;47005;52.292;13.452;2022-10-18T08:32:40;16.30;99.90
21612;DHT22;47005;52.292;13.452;2022-10-18T08:35:06;16.40;99.90
21612;DHT22;47005;52.292;13.452;2022-10-18T08:37:32;16.40;99.90
21612;DHT22;47005;52.292;13.452;2022-10-18T08:39:57;16.40;99.90
21612;DHT22;47005;52.292;13.452;2022-10-18T08:45:10;16.40;99.90
21612;DHT22;47005;52.292;13.452;2022-10-18T08:47:41;16.40;99.90
21612;DHT22;47005;52.292;13.452;2022-10-18T08:57:37;16.40;99.90
21612;DHT22;47005;52.292;13.452;2022-10-18T09:00:35;16.40;99.90
21612;DHT22;47005;52.292;13.452;2022-10-18T09:05:51;16.40;99.90
21612;DHT22;47005;52.292;13.452;2022-10-18T09:08:46;16.40;99.90
21612;DHT22;47005;52.292;13.452;2022-10-18T09:11:46;16.40;99.90
21612;DHT22;47005;52.292;13.452;2022-10-18T09:17:11;16.40;99.90
21612;DHT22;47005;52.292;13.452;2022-10-18T09:22:38;16.40;99.90
21612;DHT22;47005;52.292;13.452;2022-10-18T09:25:17;16.40;99.90
21612;DHT22;47005;52.292;13.452;2022-10-18T09:28:18;16.40;99.90
21612;DHT22;47005;52.292;13.452;2022-10-18T09:36:00;16.30;99.90
21612;DHT22;47005;52.292;13.452;2022-10-18T09:38:36;16.40;99.90
21612;DHT22;47005;52.292;13.452;2022-10-18T09:41:11;16.30;99.90
21612;DHT22;47005;52.292;13.452;2022-10-18T09:43:41;16.30;99.90
21612;DHT22;47005;52.292;13.452;2022-10-18T09:46:10;16.30;99.90
21612;DHT22;47005;52.292;13.452;2022-10-18T09:48:48;16.30;99.90
21612;DHT22;47005;52.292;13.452;2022-10-18T09:51:43;16.30;99.90
21612;DHT22;47005;52.292;13.452;2022-10-18T09:54:30;16.30;99.90
21612;DHT22;47005;52.292;13.452;2022-10-18T09:57:09;16.30;99.90
21612;DHT22;47005;52.292;13.452;2022-10-18T10:02:08;16.30;99.90
21612;DHT22;47005;52.292;13.452;2022-10-18T10:04:36;16.30;99.90
21612;DHT22;47005;52.292;13.452;2022-10-18T10:07:07;16.30;99.90
21612;DHT22;47005;52.292;13.452;2022-10-18T10:14:49;16.30;99.90
21612;DHT22;47005;52.292;13.452;2022-10-18T10:17:25;16.30;99.90
21612;DHT22;47005;52.292;13.452;2022-10-18T10:22:37;16.30;99.90
21612;DHT22;47005;52.292;13.452;2022-10-18T10:25:03;16.30;99.90
21612;DHT22;47005;52.292;13.452;2022-10-18T10:29:59;16.30;99.90
21612;DHT22;47005;52.292;13.452;2022-10-18T10:32:29;16.30;99.90
21612;DHT22;47005;52.292;13.452;2022-10-18T10:34:55;16.30;99.90
21612;DHT22;47005;52.292;13.452;2022-10-18T10:37:35;16.30;99.90
21612;DHT22;47005;52.292;13.452;2022-10-18T10:48:34;16.30;99.90
21612;DHT22;47005;52.292;13.452;2022-10-18T10:51:06;16.30;99.90
21612;DHT22;47005;52.292;13.452;2022-10-18T10:56:31;16.30;99.90
21612;DHT22;47005;52.292;13.452;2022-10-18T10:59:17;16.20;99.90
21612;DHT22;47005;52.292;13.452;2022-10-18T11:01:44;16.30;99.90
21612;DHT22;47005;52.292;13.452;2022-10-18T11:09:32;16.30;99.90
21612;DHT22;47005;52.292;13.452;2022-10-18T11:12:04;16.30;99.90
21612;DHT22;47005;52.292;13.452;2022-10-18T11:14:37;16.30;99.90
21612;DHT22;47005;52.292;13.452;2022-10-18T11:25:22;16.30;99.90
21612;DHT22;47005;52.292;13.452;2022-10-18T11:36:26;16.30;99.90
21612;DHT22;47005;52.292;13.452;2022-10-18T11:39:07;16.30;99.90
21612;DHT22;47005;52.292;13.452;2022-10-18T11:41:37;16.30;99.90
21612;DHT22;47005;52.292;13.452;2022-10-18T11:50:16;16.30;99.90
21612;DHT22;47005;52.292;13.452;2022-10-18T11:58:41;16.30;99.90
21612;DHT22;47005;52.292;13.452;2022-10-18T12:04:32;16.30;99.90
21612;DHT22;47005;52.292;13.452;2022-10-18T12:06:59;16.30;99.90
21612;DHT22;47005;52.292;13.452;2022-10-18T12:09:37;16.30;99.90
21612;DHT22;47005;52.292;13.452;2022-10-18T12:12:13;16.30;99.90
21612;DHT22;47005;52.292;13.452;2022-10-18T12:14:53;16.30;99.90
21612;DHT22;47005;52.292;13.452;2022-10-18T12:19:57;16.30;99.90
21612;DHT22;47005;52.292;13.452;2022-10-18T12:22:39;16.40;99.90
21612;DHT22;47005;52.292;13.452;2022-10-18T12:25:14;16.40;99.90
21612;DHT22;47005;52.292;13.452;2022-10-18T12:27:55;16.40;99.90
21612;DHT22;47005;52.292;13.452;2022-10-18T12:30:46;16.40;99.90
21612;DHT22;47005;52.292;13.452;2022-10-18T12:33:21;16.40;99.90
21612;DHT22;47005;52.292;13.452;2022-10-18T12:38:36;16.40;99.90
21612;DHT22;47005;52.292;13.452;2022-10-18T12:41:03;16.50;99.90
21612;DHT22;47005;52.292;13.452;2022-10-18T12:43:31;16.50;99.90
21612;DHT22;47005;52.292;13.452;2022-10-18T12:46:04;16.50;99.90
21612;DHT22;47005;52.292;13.452;2022-10-18T12:53:29;16.50;99.90
21612;DHT22;47005;52.292;13.452;2022-10-18T13:09:29;16.50;99.90
21612;DHT22;47005;52.292;13.452;2022-10-18T13:18:07;16.50;99.90
21612;DHT22;47005;52.292;13.452;2022-10-18T13:20:41;16.50;99.90
21612;DHT22;47005;52.292;13.452;2022-10-18T13:26:17;16.50;99.90
21612;DHT22;47005;52.292;13.452;2022-10-18T13:29:01;16.50;99.90
21612;DHT22;47005;52.292;13.452;2022-10-18T13:31:48;16.60;99.90
21612;DHT22;47005;52.292;13.452;2022-10-18T13:34:30;16.50;99.90
21612;DHT22;47005;52.292;13.452;2022-10-18T13:37:22;16.50;99.90
21612;DHT22;47005;52.292;13.452;2022-10-18T13:39:49;16.60;99.90
21612;DHT22;47005;52.292;13.452;2022-10-18T13:42:28;16.60;99.90
21612;DHT22;47005;52.292;13.452;2022-10-18T13:44:54;16.60;99.90
21612;DHT22;47005;52.292;13.452;2022-10-18T13:47:39;16.50;99.90
21612;DHT22;47005;52.292;13.452;2022-10-18T13:50:29;16.50;99.90
21612;DHT22;47005;52.292;13.452;2022-10-18T13:53:31;16.60;99.90
21612;DHT22;47005;52.292;13.452;2022-10-18T13:56:24;16.50;99.90
21612;DHT22;47005;52.292;13.452;2022-10-18T14:06:43;16.60;99.90
21612;DHT22;47005;52.292;13.452;2022-10-18T14:09:19;16.60;99.90
21612;DHT22;47005;52.292;13.452;2022-10-18T14:11:51;16.70;99.90
21612;DHT22;47005;52.292;13.452;2022-10-18T14:17:28;16.60;99.90
21612;DHT22;47005;52.292;13.452;2022-10-18T14:20:19;16.70;99.90
21612;DHT22;47005;52.292;13.452;2022-10-18T14:23:00;16.70;99.90
21612;DHT22;47005;52.292;13.452;2022-10-18T14:25:37;16.70;99.90
21612;DHT22;47005;52.292;13.452;2022-10-18T14:31:02;16.70;99.90
21612;DHT22;47005;52.292;13.452;2022-10-18T14:33:31;16.70;99.90
21612;DHT22;47005;52.292;13.452;2022-10-18T14:38:37;16.80;99.90
21612;DHT22;47005;52.292;13.452;2022-10-18T14:41:25;16.80;99.90
21612;DHT22;47005;52.292;13.452;2022-10-18T14:43:51;16.80;99.90
21612;DHT22;47005;52.292;13.452;2022-10-18T14:49:00;16.80;99.90
21612;DHT22;47005;52.292;13.452;2022-10-18T14:51:33;16.80;99.90
21612;DHT22;47005;52.292;13.452;2022-10-18T14:53:59;16.80;99.90
21612;DHT22;47005;52.292;13.452;2022-10-18T14:56:28;16.80;99.90
21612;DHT22;47005;52.292;13.452;2022-10-18T14:58:56;16.80;99.90
21612;DHT22;47005;52.292;13.452;2022-10-18T15:01:29;16.80;99.90
21612;DHT22;47005;52.292;13.452;2022-10-18T15:03:57;16.80;99.90
21612;DHT22;47005;52.292;13.452;2022-10-18T15:06:23;16.80;99.90
21612;DHT22;47005;52.292;13.452;2022-10-18T15:08:54;16.80;99.90
21612;DHT22;47005;52.292;13.452;2022-10-18T15:11:21;16.70;99.90
21612;DHT22;47005;52.292;13.452;2022-10-18T15:13:50;16.60;99.90
21612;DHT22;47005;52.292;13.452;2022-10-18T15:16:18;16.70;99.90
21612;DHT22;47005;52.292;13.452;2022-10-18T15:19:03;16.70;99.90
21612;DHT22;47005;52.292;13.452;2022-10-18T15:21:29;16.70;99.90
21612;DHT22;47005;52.292;13.452;2022-10-18T15:24:33;16.60;99.90
21612;DHT22;47005;52.292;13.452;2022-10-18T15:27:23;16.60;99.90
21612;DHT22;47005;52.292;13.452;2022-10-18T15:29:47;16.60;99.90
21612;DHT22;47005;52.292;13.452;2022-10-18T15:32:24;16.60;99.90
21612;DHT22;47005;52.292;13.452;2022-10-18T15:34:52;16.50;99.90
21612;DHT22;47005;52.292;13.452;2022-10-18T15:37:33;16.50;99.90
21612;DHT22;47005;52.292;13.452;2022-10-18T15:42:46;16.50;99.90
21612;DHT22;47005;52.292;13.452;2022-10-18T15:50:40;16.40;99.90
21612;DHT22;47005;52.292;13.452;2022-10-18T15:53:31;16.40;99.90
21612;DHT22;47005;52.292;13.452;2022-10-18T15:56:04;16.30;99.90
21612;DHT22;47005;52.292;13.452;2022-10-18T15:58:39;16.30;99.90
21612;DHT22;47005;52.292;13.452;2022-10-18T16:01:15;16.30;99.90
21612;DHT22;47005;52.292;13.452;2022-10-18T16:03:42;16.30;99.90
21612;DHT22;47005;52.292;13.452;2022-10-18T16:06:09;16.30;99.90
21612;DHT22;47005;52.292;13.452;2022-10-18T16:08:41;16.20;99.90
21612;DHT22;47005;52.292;13.452;2022-10-18T16:11:19;16.20;99.90
21612;DHT22;47005;52.292;13.452;2022-10-18T16:13:46;16.20;99.90
21612;DHT22;47005;52.292;13.452;2022-10-18T16:16:26;16.20;99.90
21612;DHT22;47005;52.292;13.452;2022-10-18T16:18:53;16.10;99.90
21612;DHT22;47005;52.292;13.452;2022-10-18T16:21:33;16.10;99.90
21612;DHT22;47005;52.292;13.452;2022-10-18T16:23:59;16.10;99.90
21612;DHT22;47005;52.292;13.452;2022-10-18T16:26:25;16.10;99.90
21612;DHT22;47005;52.292;13.452;2022-10-18T16:28:51;16.00;99.90
21612;DHT22;47005;52.292;13.452;2022-10-18T16:31:22;16.10;99.90
21612;DHT22;47005;52.292;13.452;2022-10-18T16:33:49;16.00;99.90
21612;DHT22;47005;52.292;13.452;2022-10-18T16:36:17;16.00;99.90
21612;DHT22;47005;52.292;13.452;2022-10-18T16:38:43;15.90;99.90
21612;DHT22;47005;52.292;13.452;2022-10-18T16:41:09;15.90;99.90
21612;DHT22;47005;52.292;13.452;2022-10-18T16:43:36;15.90;99.90
21612;DHT22;47005;52.292;13.452;2022-10-18T16:46:03;15.90;99.90
21612;DHT22;47005;52.292;13.452;2022-10-18T16:48:28;15.80;99.90
21612;DHT22;47005;52.292;13.452;2022-10-18T16:50:55;15.80;99.90
21612;DHT22;47005;52.292;13.452;2022-10-18T16:53:22;15.80;99.90
21612;DHT22;47005;52.292;13.452;2022-10-18T16:55:55;15.80;99.90
21612;DHT22;47005;52.292;13.452;2022-10-18T16:58:22;15.80;99.90
21612;DHT22;47005;52.292;13.452;2022-10-18T17:00:49;15.80;99.90
21612;DHT22;47005;52.292;13.452;2022-10-18T17:03:15;15.70;99.90
21612;DHT22;47005;52.292;13.452;2022-10-18T17:05:41;15.70;99.90
21612;DHT22;47005;52.292;13.452;2022-10-18T17:08:14;15.70;99.90
21612;DHT22;47005;52.292;13.452;2022-10-18T17:10:40;15.70;99.90
21612;DHT22;47005;52.292;13.452;2022-10-18T17:13:06;15.60;99.90
21612;DHT22;47005;52.292;13.452;2022-10-18T17:15:31;15.60;99.90
21612;DHT22;47005;52.292;13.452;2022-10-18T17:17:57;15.60;99.90
21612;DHT22;47005;52.292;13.452;2022-10-18T17:20:25;15.50;99.90
21612;DHT22;47005;52.292;13.452;2022-10-18T17:22:51;15.50;99.90
21612;DHT22;47005;52.292;13.452;2022-10-18T17:25:18;15.50;99.90
21612;DHT22;47005;52.292;13.452;2022-10-18T17:27:45;15.60;99.90
21612;DHT22;47005;52.292;13.452;2022-10-18T17:30:12;15.50;99.90
21612;DHT22;47005;52.292;13.452;2022-10-18T17:32:39;15.50;99.90
21612;DHT22;47005;52.292;13.452;2022-10-18T17:35:05;15.40;99.90
21612;DHT22;47005;52.292;13.452;2022-10-18T17:37:30;15.40;99.90
21612;DHT22;47005;52.292;13.452;2022-10-18T17:39:56;15.40;99.90
21612;DHT22;47005;52.292;13.452;2022-10-18T17:42:22;15.30;99.90
21612;DHT22;47005;52.292;13.452;2022-10-18T17:44:47;15.30;99.90
21612;DHT22;47005;52.292;13.452;2022-10-18T17:47:13;15.30;99.90
21612;DHT22;47005;52.292;13.452;2022-10-18T17:49:39;15.30;99.90
21612;DHT22;47005;52.292;13.452;2022-10-18T17:52:05;15.30;99.90
21612;DHT22;47005;52.292;13.452;2022-10-18T17:54:30;15.20;99.90
21612;DHT22;47005;52.292;13.452;2022-10-18T17:56:56;15.20;99.90
21612;DHT22;47005;52.292;13.452;2022-10-18T17:59:21;15.30;99.90
21612;DHT22;47005;52.292;13.452;2022-10-18T18:01:47;15.10;99.90
21612;DHT22;47005;52.292;13.452;2022-10-18T18:04:13;15.20;99.90
21612;DHT22;47005;52.292;13.452;2022-10-18T18:06:41;15.20;99.90
21612;DHT22;47005;52.292;13.452;2022-10-18T18:09:10;15.10;99.90
21612;DHT22;47005;52.292;13.452;2022-10-18T18:11:38;15.10;99.90
21612;DHT22;47005;52.292;13.452;2022-10-18T18:14:06;15.10;99.90
21612;DHT22;47005;52.292;13.452;2022-10-18T18:16:38;15.10;99.90
21612;DHT22;47005;52.292;13.452;2022-10-18T18:19:05;15.10;99.90
21612;DHT22;47005;52.292;13.452;2022-10-18T18:21:31;15.00;99.90